createdAt,value
2023-03-05T00:00:17.611Z,100661.08
2023-03-05T00:03:24.147Z,100659.21
2023-03-05T00:05:57.873Z,100655.12
2023-03-05T00:08:28.147Z,100656.73
2023-03-05T00:11:04.720Z,100654.96
2023-03-05T00:13:35.045Z,100652.94
2023-03-05T00:16:10.484Z,100649.74
2023-03-05T00:18:40.275Z,100648.52
2023-03-05T00:21:21.581Z,100648.80
2023-03-05T00:23:51.838Z,100641.16
2023-03-05T00:26:22.958Z,100638.77
2023-03-05T00:28:52.765Z,100634.05
2023-03-05T00:31:25.343Z,100633.81
2023-03-05T00:33:55.991Z,100630.81
2023-03-05T00:36:25.909Z,100623.00
2023-03-05T00:38:55.320Z,100623.14
2023-03-05T00:41:24.716Z,100621.17
2023-03-05T00:43:54.245Z,100623.81
2023-03-05T00:46:24.570Z,100618.69
2023-03-05T00:48:55.188Z,100614.18
2023-03-05T00:51:25.000Z,100614.16
2023-03-05T00:53:54.821Z,100608.54
2023-03-05T00:56:24.031Z,100607.73
2023-03-05T00:58:53.524Z,100603.12
2023-03-05T01:01:23.281Z,100603.77
2023-03-05T01:03:52.643Z,100596.29
2023-03-05T01:06:21.950Z,100588.23
2023-03-05T01:08:50.988Z,100583.06
2023-03-05T01:11:19.929Z,100583.71
2023-03-05T01:13:48.831Z,100583.23
2023-03-05T01:16:18.040Z,100576.00
2023-03-05T01:18:47.021Z,100578.44
2023-03-05T01:21:15.988Z,100572.41
2023-03-05T01:23:44.913Z,100570.91
2023-03-05T01:26:13.903Z,100570.78
2023-03-05T01:28:42.793Z,100572.83
2023-03-05T01:31:12.569Z,100566.97
2023-03-05T01:33:41.619Z,100566.32
2023-03-05T01:36:14.923Z,100561.41
2023-03-05T01:38:46.362Z,100560.51
2023-03-05T01:41:17.196Z,100560.10
2023-03-05T01:43:47.530Z,100562.14
2023-03-05T01:46:16.962Z,100559.55
2023-03-05T01:48:50.044Z,100559.19
2023-03-05T01:51:20.376Z,100558.91
2023-03-05T01:53:49.654Z,100559.40
2023-03-05T01:56:18.858Z,100555.45
2023-03-05T01:58:47.863Z,100550.19
2023-03-05T02:01:17.189Z,100548.16
2023-03-05T02:03:48.415Z,100549.29
2023-03-05T02:06:17.708Z,100549.83
2023-03-05T02:08:46.705Z,100547.31
2023-03-05T02:11:15.603Z,100542.34
2023-03-05T02:13:44.599Z,100540.36
2023-03-05T02:16:13.840Z,100535.71
2023-03-05T02:18:42.905Z,100530.27
2023-03-05T02:21:12.358Z,100528.52
2023-03-05T02:23:41.407Z,100527.75
2023-03-05T02:26:11.223Z,100527.39
2023-03-05T02:28:44.642Z,100520.83
2023-03-05T02:31:19.690Z,100517.59
2023-03-05T02:33:49.884Z,100514.89
2023-03-05T02:36:18.937Z,100514.19
2023-03-05T02:38:48.697Z,100506.05
2023-03-05T02:41:17.592Z,100495.41
2023-03-05T02:43:46.613Z,100490.77
2023-03-05T02:46:15.637Z,100485.09
2023-03-05T02:48:45.118Z,100482.29
2023-03-05T02:51:15.011Z,100476.30
2023-03-05T02:53:44.012Z,100476.73
2023-03-05T02:56:13.222Z,100473.20
2023-03-05T02:58:42.424Z,100463.83
2023-03-05T03:01:11.558Z,100464.56
2023-03-05T03:03:41.128Z,100456.72
2023-03-05T03:06:10.226Z,100458.71
2023-03-05T03:08:39.121Z,100451.37
2023-03-05T03:11:11.296Z,100453.93
2023-03-05T03:13:40.900Z,100446.95
2023-03-05T03:16:13.603Z,100442.78
2023-03-05T03:18:42.894Z,100442.74
2023-03-05T03:21:21.030Z,100444.14
2023-03-05T03:23:50.080Z,100437.33
2023-03-05T03:26:19.924Z,100438.34
2023-03-05T03:28:48.907Z,100437.02
2023-03-05T03:31:18.222Z,100430.64
2023-03-05T03:33:47.223Z,100427.90
2023-03-05T03:36:16.516Z,100425.59
2023-03-05T03:38:45.625Z,100420.46
2023-03-05T03:41:14.536Z,100417.87
2023-03-05T03:43:43.610Z,100420.92
2023-03-05T03:46:12.578Z,100415.56
2023-03-05T03:48:41.587Z,100411.19
2023-03-05T03:51:10.606Z,100409.83
2023-03-05T03:53:39.622Z,100407.23
2023-03-05T03:56:08.700Z,100397.61
2023-03-05T03:58:38.049Z,100393.36
2023-03-05T04:01:07.006Z,100388.61
2023-03-05T04:03:35.999Z,100382.77
2023-03-05T04:06:05.304Z,100379.12
2023-03-05T04:08:34.303Z,100371.99
2023-03-05T04:11:03.639Z,100373.00
2023-03-05T04:13:32.603Z,100366.91
2023-03-05T04:16:01.874Z,100361.05
2023-03-05T04:18:32.548Z,100356.02
2023-03-05T04:21:01.750Z,100352.29
2023-03-05T04:23:30.845Z,100344.52
2023-03-05T04:26:00.048Z,100344.04
2023-03-05T04:28:29.041Z,100341.66
2023-03-05T04:30:58.193Z,100341.10
2023-03-05T04:33:27.344Z,100338.81
2023-03-05T04:35:56.373Z,100340.13
2023-03-05T04:38:25.436Z,100339.08
2023-03-05T04:40:54.440Z,100332.91
2023-03-05T04:43:23.539Z,100331.42
2023-03-05T04:45:52.532Z,100326.02
2023-03-05T04:48:21.532Z,100320.08
2023-03-05T04:50:50.730Z,100316.35
2023-03-05T04:53:19.737Z,100311.42
2023-03-05T04:55:54.610Z,100310.17
2023-03-05T04:58:24.368Z,100303.14
2023-03-05T05:00:53.368Z,100303.59
2023-03-05T05:03:22.298Z,100298.81
2023-03-05T05:05:59.259Z,100300.46
2023-03-05T05:08:29.286Z,100294.73
2023-03-05T05:11:00.716Z,100296.39
2023-03-05T05:13:31.148Z,100292.98
2023-03-05T05:16:00.600Z,100297.38
2023-03-05T05:18:29.657Z,100301.94
2023-03-05T05:20:58.654Z,100297.41
2023-03-05T05:23:27.668Z,100302.62
2023-03-05T05:26:01.661Z,100305.05
2023-03-05T05:28:31.068Z,100300.08
2023-03-05T05:31:00.097Z,100300.91
2023-03-05T05:33:29.061Z,100299.80
2023-03-05T05:35:58.128Z,100300.16
2023-03-05T05:38:27.266Z,100302.02
2023-03-05T05:41:05.949Z,100303.45
2023-03-05T05:43:35.698Z,100300.56
2023-03-05T05:46:09.099Z,100305.54
2023-03-05T05:48:38.443Z,100302.38
2023-03-05T05:51:19.783Z,100306.29
2023-03-05T05:53:49.806Z,100306.00
2023-03-05T05:56:19.784Z,100300.53
2023-03-05T05:58:49.295Z,100302.72
2023-03-05T06:01:23.087Z,100299.01
2023-03-05T06:03:52.604Z,100300.38
2023-03-05T06:06:24.553Z,100300.71
2023-03-05T06:08:54.480Z,100296.36
2023-03-05T06:11:23.436Z,100294.02
2023-03-05T06:13:52.717Z,100296.38
2023-03-05T06:16:24.402Z,100289.59
2023-03-05T06:18:53.855Z,100288.30
2023-03-05T06:21:23.624Z,100282.59
2023-03-05T06:23:52.532Z,100284.06
2023-03-05T06:26:23.010Z,100276.45
2023-03-05T06:28:52.462Z,100272.88
2023-03-05T06:31:25.949Z,100272.98
2023-03-05T06:34:02.883Z,100272.89
2023-03-05T06:36:31.886Z,100276.80
2023-03-05T06:39:00.832Z,100271.14
2023-03-05T06:41:30.985Z,100275.55
2023-03-05T06:44:02.496Z,100271.48
2023-03-05T06:46:34.461Z,100266.77
2023-03-05T06:49:04.463Z,100265.61
2023-03-05T06:51:35.939Z,100268.58
2023-03-05T06:54:11.555Z,100264.52
2023-03-05T06:56:42.999Z,100262.00
2023-03-05T06:59:13.693Z,100262.35
2023-03-05T07:01:44.057Z,100259.70
2023-03-05T07:04:15.132Z,100264.02
2023-03-05T07:06:44.885Z,100263.27
2023-03-05T07:09:15.785Z,100268.05
2023-03-05T07:11:44.719Z,100263.84
2023-03-05T07:14:13.807Z,100259.66
2023-03-05T07:16:42.790Z,100268.16
2023-03-05T07:19:11.888Z,100264.89
2023-03-05T07:21:40.823Z,100268.50
2023-03-05T07:24:19.288Z,100265.41
2023-03-05T07:26:49.076Z,100266.23
2023-03-05T07:29:18.213Z,100263.64
2023-03-05T07:31:47.412Z,100263.70
2023-03-05T07:34:16.370Z,100249.00
2023-03-05T07:36:56.291Z,100250.52
2023-03-05T07:39:25.273Z,100232.48
2023-03-05T07:42:03.442Z,100247.46
2023-03-05T07:44:32.390Z,100243.54
2023-03-05T07:47:05.029Z,100247.16
2023-03-05T07:49:42.139Z,100243.59
2023-03-05T07:52:11.233Z,100239.34
2023-03-05T07:54:40.340Z,100240.95
2023-03-05T07:57:13.352Z,100239.92
2023-03-05T07:59:43.303Z,100242.41
2023-03-05T08:02:13.819Z,100241.65
2023-03-05T08:04:50.831Z,100236.27
2023-03-05T08:07:23.317Z,100236.23
2023-03-05T08:09:52.188Z,100234.82
2023-03-05T08:12:21.267Z,100233.19
2023-03-05T08:14:51.497Z,100232.92
2023-03-05T08:17:20.423Z,100231.30
2023-03-05T08:19:49.435Z,100233.73
2023-03-05T08:22:20.631Z,100232.90
2023-03-05T08:24:50.627Z,100231.30
2023-03-05T08:27:19.618Z,100231.30
2023-03-05T08:29:48.564Z,100231.70
2023-03-05T08:32:17.703Z,100229.59
2023-03-05T08:34:46.903Z,100227.14
2023-03-05T08:37:15.998Z,100228.70
2023-03-05T08:39:44.892Z,100225.25
2023-03-05T08:42:16.653Z,100224.05
2023-03-05T08:44:48.824Z,100221.89
2023-03-05T08:47:19.291Z,100223.70
2023-03-05T08:49:48.353Z,100221.09
2023-03-05T08:52:17.348Z,100222.17
2023-03-05T08:54:46.246Z,100219.38
2023-03-05T08:57:15.244Z,100220.51
2023-03-05T08:59:44.247Z,100219.80
2023-03-05T09:02:13.656Z,100220.23
2023-03-05T09:04:42.707Z,100215.83
2023-03-05T09:07:11.704Z,100216.86
2023-03-05T09:09:40.565Z,100217.82
2023-03-05T09:12:12.148Z,100216.69
2023-03-05T09:14:42.218Z,100215.16
2023-03-05T09:17:21.486Z,100214.50
2023-03-05T09:19:50.861Z,100216.62
2023-03-05T09:22:21.125Z,100219.40
2023-03-05T09:24:50.041Z,100222.13
2023-03-05T09:27:18.968Z,100219.65
2023-03-05T09:29:48.374Z,100218.08
2023-03-05T09:32:17.315Z,100219.00
2023-03-05T09:34:46.372Z,100216.15
2023-03-05T09:37:19.173Z,100211.90
2023-03-05T09:39:48.147Z,100214.10
2023-03-05T09:42:29.439Z,100214.48
2023-03-05T09:45:10.302Z,100219.90
2023-03-05T09:48:13.268Z,100212.97
2023-03-05T09:50:47.485Z,100211.52
2023-03-05T09:53:28.563Z,100211.55
2023-03-05T09:56:04.743Z,100214.87
2023-03-05T09:58:41.191Z,100209.80
2023-03-05T10:01:34.849Z,100205.23
2023-03-05T10:04:11.919Z,100202.50
2023-03-05T10:07:02.862Z,100197.02
2023-03-05T10:09:50.971Z,100193.05
2023-03-05T10:12:35.195Z,100193.52
2023-03-05T10:15:09.378Z,100195.09
2023-03-05T10:18:05.814Z,100197.37
2023-03-05T10:20:53.832Z,100193.66
2023-03-05T10:23:37.677Z,100191.61
2023-03-05T10:26:15.375Z,100193.30
2023-03-05T10:28:51.593Z,100188.44
2023-03-05T10:31:36.257Z,100188.65
2023-03-05T10:34:33.907Z,100185.42
2023-03-05T10:37:21.428Z,100190.39
2023-03-05T10:40:15.120Z,100183.80
2023-03-05T10:43:06.264Z,100183.23
2023-03-05T10:45:40.111Z,100181.36
2023-03-05T10:48:33.881Z,100186.48
2023-03-05T10:51:13.922Z,100185.61
2023-03-05T10:53:51.462Z,100183.80
2023-03-05T10:56:23.293Z,100184.08
2023-03-05T10:58:53.025Z,100187.54
2023-03-05T11:01:28.191Z,100187.09
2023-03-05T11:04:05.829Z,100181.40
2023-03-05T11:06:43.527Z,100185.88
2023-03-05T11:09:18.220Z,100186.23
2023-03-05T11:12:12.309Z,100190.11
2023-03-05T11:15:10.494Z,100188.66
2023-03-05T11:17:48.087Z,100188.90
2023-03-05T11:20:29.555Z,100188.70
2023-03-05T11:23:25.727Z,100190.31
2023-03-05T11:26:05.405Z,100189.81
2023-03-05T11:28:38.269Z,100190.27
2023-03-05T11:31:19.893Z,100187.51
2023-03-05T11:34:17.489Z,100185.11
2023-03-05T11:36:58.522Z,100177.86
2023-03-05T11:39:30.593Z,100173.86
2023-03-05T11:42:13.889Z,100165.66
2023-03-05T11:44:49.271Z,100158.69
2023-03-05T11:47:18.219Z,100152.75
2023-03-05T11:49:50.892Z,100152.52
2023-03-05T11:52:32.557Z,100159.95
2023-03-05T11:55:20.895Z,100155.15
2023-03-05T11:58:39.498Z,100154.02
2023-03-05T12:01:23.888Z,100144.95
2023-03-05T12:03:53.537Z,100147.67
2023-03-05T12:06:43.745Z,100142.61
2023-03-05T12:09:25.957Z,100142.46
2023-03-05T12:12:10.162Z,100143.19
2023-03-05T12:14:48.644Z,100140.52
2023-03-05T12:17:31.673Z,100139.09
2023-03-05T12:20:24.281Z,100136.21
2023-03-05T12:22:53.526Z,100134.15
2023-03-05T12:25:33.619Z,100125.94
2023-03-05T12:28:03.263Z,100128.08
2023-03-05T12:30:35.258Z,100129.19
2023-03-05T12:33:35.902Z,100133.05
2023-03-05T12:36:23.286Z,100142.11
2023-03-05T12:38:56.233Z,100142.11
2023-03-05T12:41:31.022Z,100149.02
2023-03-05T12:44:24.161Z,100145.41
2023-03-05T12:47:23.699Z,100149.66
2023-03-05T12:49:52.799Z,100147.90
2023-03-05T12:52:25.086Z,100151.14
2023-03-05T12:55:20.364Z,100153.14
2023-03-05T12:57:58.497Z,100156.64
2023-03-05T13:00:33.957Z,100154.64
2023-03-05T13:03:08.411Z,100158.42
2023-03-05T13:05:39.494Z,100160.21
2023-03-05T13:08:26.737Z,100166.38
2023-03-05T13:11:02.648Z,100164.11
2023-03-05T13:13:53.337Z,100166.61
2023-03-05T13:16:38.895Z,100166.98
2023-03-05T13:19:21.911Z,100162.55
2023-03-05T13:22:14.182Z,100170.95
2023-03-05T13:24:53.480Z,100170.02
2023-03-05T13:27:37.875Z,100148.08
2023-03-05T13:30:34.371Z,100153.27
2023-03-05T13:33:33.141Z,100146.65
2023-03-05T13:36:09.978Z,100144.69
2023-03-05T13:38:47.089Z,100142.77
2023-03-05T13:41:16.002Z,100143.84
2023-03-05T13:44:12.428Z,100141.00
2023-03-05T13:46:42.352Z,100142.10
2023-03-05T13:49:18.937Z,100140.11
2023-03-05T13:51:52.414Z,100138.44
2023-03-05T13:54:23.416Z,100138.61
2023-03-05T13:56:58.929Z,100141.63
2023-03-05T13:59:34.260Z,100139.60
2023-03-05T14:02:18.455Z,100133.50
2023-03-05T14:04:50.416Z,100130.02
2023-03-05T14:07:38.644Z,100128.03
2023-03-05T14:10:39.381Z,100130.23
2023-03-05T14:13:20.922Z,100126.01
2023-03-05T14:16:28.190Z,100123.02
2023-03-05T14:19:01.308Z,100116.29
2023-03-05T14:21:46.116Z,100116.98
2023-03-05T14:24:23.029Z,100116.04
2023-03-05T14:27:01.039Z,100111.41
2023-03-05T14:29:30.136Z,100109.39
2023-03-05T14:32:18.672Z,100110.64
2023-03-05T14:34:53.190Z,100109.50
2023-03-05T14:37:45.102Z,100107.87
2023-03-05T14:40:14.091Z,100108.45
2023-03-05T14:43:02.177Z,100106.76
2023-03-05T14:45:39.865Z,100105.43
2023-03-05T14:48:13.068Z,100104.27
2023-03-05T14:50:44.948Z,100105.73
2023-03-05T14:53:17.392Z,100104.39
2023-03-05T14:55:50.509Z,100101.23
2023-03-05T14:58:22.233Z,100097.94
2023-03-05T15:00:51.455Z,100098.16
2023-03-05T15:03:23.000Z,100096.61
2023-03-05T15:05:54.903Z,100099.98
2023-03-05T15:08:27.128Z,100097.05
2023-03-05T15:10:56.363Z,100091.31
2023-03-05T15:13:26.768Z,100090.39
2023-03-05T15:15:56.096Z,100091.48
2023-03-05T15:18:25.181Z,100090.09
2023-03-05T15:20:54.160Z,100088.80
2023-03-05T15:23:23.770Z,100087.61
2023-03-05T15:25:52.658Z,100090.20
2023-03-05T15:28:21.739Z,100091.85
2023-03-05T15:30:50.758Z,100091.19
2023-03-05T15:33:19.828Z,100090.16
2023-03-05T15:35:49.060Z,100092.23
2023-03-05T15:38:18.129Z,100089.03
2023-03-05T15:40:47.437Z,100085.36
2023-03-05T15:43:16.837Z,100091.38
2023-03-05T15:45:46.452Z,100085.71
2023-03-05T15:48:15.653Z,100086.14
2023-03-05T15:50:45.412Z,100086.05
2023-03-05T15:53:18.270Z,100080.80
2023-03-05T15:55:47.235Z,100081.73
2023-03-05T15:58:17.233Z,100082.27
2023-03-05T16:00:47.624Z,100082.96
2023-03-05T16:03:16.921Z,100084.20
2023-03-05T16:05:45.879Z,100083.30
2023-03-05T16:08:14.880Z,100081.02
2023-03-05T16:10:43.784Z,100084.63
2023-03-05T16:13:17.683Z,100082.04
2023-03-05T16:15:53.055Z,100078.61
2023-03-05T16:18:23.508Z,100071.91
2023-03-05T16:20:52.652Z,100074.27
2023-03-05T16:23:22.429Z,100070.45
2023-03-05T16:25:51.510Z,100069.55
2023-03-05T16:28:20.405Z,100070.92
2023-03-05T16:30:54.541Z,100072.94
2023-03-05T16:33:24.037Z,100066.02
2023-03-05T16:36:13.230Z,100069.15
2023-03-05T16:38:42.125Z,100067.46
2023-03-05T16:41:11.010Z,100064.16
2023-03-05T16:43:39.977Z,100063.88
2023-03-05T16:46:08.909Z,100057.66
2023-03-05T16:48:37.914Z,100070.94
2023-03-05T16:51:07.172Z,100068.77
2023-03-05T16:53:36.622Z,100068.03
2023-03-05T16:56:07.829Z,100067.50
2023-03-05T16:58:39.277Z,100066.32
2023-03-05T17:01:14.383Z,100070.59
2023-03-05T17:03:44.243Z,100069.23
2023-03-05T17:06:15.051Z,100077.20
2023-03-05T17:08:45.381Z,100081.30
2023-03-05T17:11:15.300Z,100084.89
2023-03-05T17:13:45.544Z,100083.45
2023-03-05T17:16:18.567Z,100084.52
2023-03-05T17:18:48.441Z,100087.21
2023-03-05T17:21:17.535Z,100090.36
2023-03-05T17:23:46.531Z,100088.89
2023-03-05T17:26:18.955Z,100090.61
2023-03-05T17:28:48.000Z,100089.65
2023-03-05T17:31:17.036Z,100093.04
2023-03-05T17:33:48.395Z,100090.12
2023-03-05T17:36:28.719Z,100092.14
2023-03-05T17:39:00.876Z,100093.00
2023-03-05T17:41:29.770Z,100093.13
2023-03-05T17:43:58.773Z,100090.38
2023-03-05T17:46:28.350Z,100091.39
2023-03-05T17:49:04.487Z,100084.98
2023-03-05T17:51:36.010Z,100092.63
2023-03-05T17:54:10.431Z,100090.04
2023-03-05T17:56:46.788Z,100090.20
2023-03-05T17:59:31.864Z,100092.09
2023-03-05T18:02:00.924Z,100088.69
2023-03-05T18:04:29.867Z,100089.34
2023-03-05T18:06:58.880Z,100088.73
2023-03-05T18:09:27.795Z,100091.05
2023-03-05T18:11:56.711Z,100086.64
2023-03-05T18:14:25.721Z,100086.02
2023-03-05T18:16:54.961Z,100082.02
2023-03-05T18:19:25.304Z,100080.02
2023-03-05T18:21:54.255Z,100084.82
2023-03-05T18:24:23.083Z,100080.88
2023-03-05T18:26:51.959Z,100082.24
2023-03-05T18:29:24.851Z,100085.51
2023-03-05T18:32:23.243Z,100085.70
2023-03-05T18:35:11.946Z,100084.61
2023-03-05T18:37:45.900Z,100068.35
2023-03-05T18:40:30.662Z,100079.38
2023-03-05T18:43:01.078Z,100078.63
2023-03-05T18:45:30.922Z,100075.02
2023-03-05T18:48:00.224Z,100076.70
2023-03-05T18:50:29.752Z,100074.77
2023-03-05T18:52:58.731Z,100073.91
2023-03-05T18:55:29.658Z,100078.79
2023-03-05T18:57:59.115Z,100077.41
2023-03-05T19:00:31.301Z,100077.05
2023-03-05T19:03:00.701Z,100074.13
2023-03-05T19:05:29.994Z,100068.65
2023-03-05T19:08:20.754Z,100061.89
2023-03-05T19:11:21.031Z,100057.00
2023-03-05T19:14:04.367Z,100050.79
2023-03-05T19:16:43.512Z,100046.28
2023-03-05T19:19:16.616Z,100047.73
2023-03-05T19:21:48.450Z,100048.55
2023-03-05T19:24:17.598Z,100050.02
2023-03-05T19:26:46.651Z,100055.59
2023-03-05T19:29:16.673Z,100054.19
2023-03-05T19:31:45.542Z,100059.91
2023-03-05T19:34:14.536Z,100062.69
2023-03-05T19:36:43.601Z,100068.88
2023-03-05T19:39:13.601Z,100066.36
2023-03-05T19:41:42.758Z,100067.83
2023-03-05T19:44:13.026Z,100067.45
2023-03-05T19:46:45.406Z,100068.84
2023-03-05T19:49:21.527Z,100068.59
2023-03-05T19:51:56.718Z,100068.94
2023-03-05T19:54:25.683Z,100066.67
2023-03-05T19:56:56.040Z,100070.55
2023-03-05T19:59:25.542Z,100069.40
2023-03-05T20:01:54.602Z,100067.53
2023-03-05T20:04:24.344Z,100066.33
2023-03-05T20:06:53.271Z,100063.52
2023-03-05T20:09:22.188Z,100063.80
2023-03-05T20:11:51.292Z,100061.72
2023-03-05T20:14:20.157Z,100060.23
2023-03-05T20:16:49.116Z,100062.71
2023-03-05T20:19:18.530Z,100059.98
2023-03-05T20:21:48.024Z,100057.22
2023-03-05T20:24:19.789Z,100055.25
2023-03-05T20:26:48.888Z,100053.23
2023-03-05T20:29:18.725Z,100050.06
2023-03-05T20:31:50.150Z,100050.30
2023-03-05T20:34:20.586Z,100048.12
2023-03-05T20:36:49.612Z,100048.33
2023-03-05T20:39:18.607Z,100051.08
2023-03-05T20:41:48.654Z,100053.67
2023-03-05T20:44:17.584Z,100052.66
2023-03-05T20:46:59.749Z,100051.46
2023-03-05T20:49:28.838Z,100050.04
2023-03-05T20:51:57.776Z,100046.54
2023-03-05T20:54:28.166Z,100043.80
2023-03-05T20:56:57.141Z,100043.08
2023-03-05T20:59:26.172Z,100041.98
2023-03-05T21:01:55.222Z,100042.04
2023-03-05T21:04:24.177Z,100039.06
2023-03-05T21:06:53.272Z,100036.88
2023-03-05T21:09:22.450Z,100037.75
2023-03-05T21:11:51.437Z,100038.64
2023-03-05T21:14:20.429Z,100035.94
2023-03-05T21:16:49.357Z,100034.59
2023-03-05T21:19:18.403Z,100033.14
2023-03-05T21:21:47.324Z,100032.90
2023-03-05T21:24:17.233Z,100031.10
2023-03-05T21:26:46.177Z,100028.92
2023-03-05T21:29:15.182Z,100028.42
2023-03-05T21:31:44.283Z,100024.20
2023-03-05T21:34:14.691Z,100026.02
2023-03-05T21:36:43.648Z,100028.52
2023-03-05T21:39:12.567Z,100028.64
2023-03-05T21:41:41.514Z,100025.89
2023-03-05T21:44:11.812Z,100025.38
2023-03-05T21:46:42.819Z,100022.55
2023-03-05T21:49:11.793Z,100016.61
2023-03-05T21:51:51.127Z,100016.60
2023-03-05T21:54:22.667Z,100012.70
2023-03-05T21:56:51.648Z,100015.48
2023-03-05T21:59:20.530Z,100012.44
2023-03-05T22:01:51.433Z,100013.25
2023-03-05T22:04:21.318Z,100014.76
2023-03-05T22:06:50.596Z,100016.64
2023-03-05T22:09:19.508Z,100014.23
2023-03-05T22:11:48.420Z,100015.73
2023-03-05T22:14:18.111Z,100012.17
2023-03-05T22:16:47.558Z,100008.64
2023-03-05T22:19:16.605Z,100006.40
2023-03-05T22:21:45.621Z,100001.83
2023-03-05T22:24:14.634Z,99998.20
2023-03-05T22:26:43.599Z,99993.85
2023-03-05T22:29:13.159Z,99991.30
2023-03-05T22:31:42.142Z,99986.33
2023-03-05T22:34:11.103Z,99987.46
2023-03-05T22:36:40.643Z,99987.12
2023-03-05T22:39:09.603Z,99986.27
2023-03-05T22:41:41.708Z,99986.92
2023-03-05T22:44:10.795Z,99992.94
2023-03-05T22:46:39.764Z,99988.12
2023-03-05T22:49:08.642Z,99986.95
2023-03-05T22:51:37.584Z,99983.45
2023-03-05T22:54:06.484Z,99983.41
2023-03-05T22:56:36.509Z,99984.39
2023-03-05T22:59:05.427Z,99978.16
2023-03-05T23:01:34.382Z,99975.77
2023-03-05T23:04:09.137Z,99977.35
2023-03-05T23:06:38.043Z,99975.70
2023-03-05T23:09:06.996Z,99976.52
2023-03-05T23:11:36.113Z,99972.67
2023-03-05T23:14:05.075Z,99970.14
2023-03-05T23:16:34.463Z,99971.61
2023-03-05T23:19:03.432Z,99970.34
2023-03-05T23:21:32.388Z,99966.09
2023-03-05T23:24:01.263Z,99962.62
2023-03-05T23:26:30.182Z,99964.69
2023-03-05T23:28:59.072Z,99966.73
2023-03-05T23:31:28.020Z,99965.81
2023-03-05T23:33:57.021Z,99968.81
2023-03-05T23:36:26.316Z,99963.09
2023-03-05T23:38:58.128Z,99966.25
2023-03-05T23:41:27.030Z,99963.95
2023-03-05T23:43:56.038Z,99960.09
2023-03-05T23:46:25.315Z,99957.42
2023-03-05T23:48:54.351Z,99956.22
2023-03-05T23:51:23.292Z,99954.34
2023-03-05T23:53:52.225Z,99954.44
2023-03-05T23:56:21.272Z,99955.90
2023-03-05T23:58:50.242Z,99955.73
